sensor_id;sensor_type;location;lat;lon;timestamp;P1;durP1;ratioP1;P2;durP2;ratioP2
36855;SDS011;22788;51.434;6.786;2024-01-30T00:00:35;4.70;;;3.83;;
36855;SDS011;22788;51.434;6.786;2024-01-30T00:03:01;6.33;;;4.97;;
36855;SDS011;22788;51.434;6.786;2024-01-30T00:05:26;5.93;;;4.27;;
36855;SDS011;22788;51.434;6.786;2024-01-30T00:07:52;5.77;;;3.83;;
36855;SDS011;22788;51.434;6.786;2024-01-30T00:10:17;5.87;;;4.33;;
36855;SDS011;22788;51.434;6.786;2024-01-30T00:12:43;6.27;;;4.40;;
36855;SDS011;22788;51.434;6.786;2024-01-30T00:15:08;7.73;;;4.83;;
36855;SDS011;22788;51.434;6.786;2024-01-30T00:17:36;4.70;;;3.60;;
36855;SDS011;22788;51.434;6.786;2024-01-30T00:20:01;5.57;;;4.33;;
36855;SDS011;22788;51.434;6.786;2024-01-30T00:22:27;4.80;;;4.27;;
36855;SDS011;22788;51.434;6.786;2024-01-30T00:24:53;5.43;;;4.10;;
36855;SDS011;22788;51.434;6.786;2024-01-30T00:27:19;5.93;;;4.23;;
36855;SDS011;22788;51.434;6.786;2024-01-30T00:29:44;7.17;;;4.63;;
36855;SDS011;22788;51.434;6.786;2024-01-30T00:32:10;5.70;;;4.17;;
36855;SDS011;22788;51.434;6.786;2024-01-30T00:34:37;7.23;;;4.97;;
36855;SDS011;22788;51.434;6.786;2024-01-30T00:37:02;6.07;;;4.37;;
36855;SDS011;22788;51.434;6.786;2024-01-30T00:39:28;6.50;;;5.03;;
36855;SDS011;22788;51.434;6.786;2024-01-30T00:41:54;7.83;;;4.70;;
36855;SDS011;22788;51.434;6.786;2024-01-30T00:44:19;6.83;;;4.83;;
36855;SDS011;22788;51.434;6.786;2024-01-30T00:46:45;5.13;;;4.33;;
36855;SDS011;22788;51.434;6.786;2024-01-30T00:49:10;8.80;;;4.50;;
36855;SDS011;22788;51.434;6.786;2024-01-30T00:51:37;5.50;;;4.67;;
36855;SDS011;22788;51.434;6.786;2024-01-30T00:54:03;6.10;;;4.57;;
36855;SDS011;22788;51.434;6.786;2024-01-30T00:56:29;6.40;;;4.90;;
36855;SDS011;22788;51.434;6.786;2024-01-30T00:58:55;11.33;;;4.60;;
36855;SDS011;22788;51.434;6.786;2024-01-30T01:01:21;6.30;;;4.60;;
36855;SDS011;22788;51.434;6.786;2024-01-30T01:03:46;4.97;;;4.43;;
36855;SDS011;22788;51.434;6.786;2024-01-30T01:06:12;6.30;;;5.03;;
36855;SDS011;22788;51.434;6.786;2024-01-30T01:08:39;5.60;;;5.03;;
36855;SDS011;22788;51.434;6.786;2024-01-30T01:11:05;5.67;;;4.40;;
36855;SDS011;22788;51.434;6.786;2024-01-30T01:13:30;7.13;;;4.73;;
36855;SDS011;22788;51.434;6.786;2024-01-30T01:15:56;6.90;;;5.10;;
36855;SDS011;22788;51.434;6.786;2024-01-30T01:18:22;9.43;;;5.50;;
36855;SDS011;22788;51.434;6.786;2024-01-30T01:20:47;5.20;;;4.70;;
36855;SDS011;22788;51.434;6.786;2024-01-30T01:23:13;6.03;;;4.43;;
36855;SDS011;22788;51.434;6.786;2024-01-30T01:25:40;6.27;;;4.83;;
36855;SDS011;22788;51.434;6.786;2024-01-30T01:28:05;7.70;;;5.27;;
36855;SDS011;22788;51.434;6.786;2024-01-30T01:30:31;7.33;;;4.77;;
36855;SDS011;22788;51.434;6.786;2024-01-30T01:32:57;8.37;;;5.40;;
36855;SDS011;22788;51.434;6.786;2024-01-30T01:35:22;5.90;;;4.27;;
36855;SDS011;22788;51.434;6.786;2024-01-30T01:37:48;7.10;;;5.43;;
36855;SDS011;22788;51.434;6.786;2024-01-30T01:40:14;8.33;;;5.07;;
36855;SDS011;22788;51.434;6.786;2024-01-30T01:42:41;5.83;;;4.40;;
36855;SDS011;22788;51.434;6.786;2024-01-30T01:45:07;5.37;;;4.43;;
36855;SDS011;22788;51.434;6.786;2024-01-30T01:47:33;5.83;;;4.77;;
36855;SDS011;22788;51.434;6.786;2024-01-30T01:49:59;6.90;;;5.00;;
36855;SDS011;22788;51.434;6.786;2024-01-30T01:52:24;5.90;;;4.70;;
36855;SDS011;22788;51.434;6.786;2024-01-30T01:54:50;6.90;;;5.40;;
36855;SDS011;22788;51.434;6.786;2024-01-30T01:57:15;6.47;;;4.73;;
36855;SDS011;22788;51.434;6.786;2024-01-30T01:59:42;9.37;;;5.20;;
36855;SDS011;22788;51.434;6.786;2024-01-30T02:02:08;8.73;;;5.50;;
36855;SDS011;22788;51.434;6.786;2024-01-30T02:04:37;8.23;;;5.17;;
36855;SDS011;22788;51.434;6.786;2024-01-30T02:07:03;6.93;;;4.87;;
36855;SDS011;22788;51.434;6.786;2024-01-30T02:09:29;6.30;;;4.83;;
36855;SDS011;22788;51.434;6.786;2024-01-30T02:11:54;6.33;;;4.70;;
36855;SDS011;22788;51.434;6.786;2024-01-30T02:14:20;8.60;;;4.53;;
36855;SDS011;22788;51.434;6.786;2024-01-30T02:16:47;9.23;;;5.03;;
36855;SDS011;22788;51.434;6.786;2024-01-30T02:19:13;5.33;;;4.53;;
36855;SDS011;22788;51.434;6.786;2024-01-30T02:21:40;8.00;;;5.00;;
36855;SDS011;22788;51.434;6.786;2024-01-30T02:24:05;6.07;;;5.03;;
36855;SDS011;22788;51.434;6.786;2024-01-30T02:26:31;4.87;;;4.03;;
36855;SDS011;22788;51.434;6.786;2024-01-30T02:28:57;7.37;;;5.27;;
36855;SDS011;22788;51.434;6.786;2024-01-30T02:31:22;8.03;;;5.33;;
36855;SDS011;22788;51.434;6.786;2024-01-30T02:33:49;6.87;;;5.07;;
36855;SDS011;22788;51.434;6.786;2024-01-30T02:36:15;6.77;;;5.13;;
36855;SDS011;22788;51.434;6.786;2024-01-30T02:38:42;5.93;;;5.00;;
36855;SDS011;22788;51.434;6.786;2024-01-30T02:41:08;6.87;;;4.90;;
36855;SDS011;22788;51.434;6.786;2024-01-30T02:43:33;8.03;;;5.17;;
36855;SDS011;22788;51.434;6.786;2024-01-30T02:45:59;6.30;;;5.10;;
36855;SDS011;22788;51.434;6.786;2024-01-30T02:48:24;5.80;;;4.80;;
36855;SDS011;22788;51.434;6.786;2024-01-30T02:50:50;6.07;;;4.77;;
36855;SDS011;22788;51.434;6.786;2024-01-30T02:53:15;6.23;;;5.30;;
36855;SDS011;22788;51.434;6.786;2024-01-30T02:55:42;6.47;;;4.77;;
36855;SDS011;22788;51.434;6.786;2024-01-30T02:58:08;5.57;;;4.97;;
36855;SDS011;22788;51.434;6.786;2024-01-30T03:00:34;7.80;;;4.90;;
36855;SDS011;22788;51.434;6.786;2024-01-30T03:02:59;6.77;;;4.83;;
36855;SDS011;22788;51.434;6.786;2024-01-30T03:05:25;8.97;;;5.57;;
36855;SDS011;22788;51.434;6.786;2024-01-30T03:07:50;6.73;;;5.20;;
36855;SDS011;22788;51.434;6.786;2024-01-30T03:10:16;10.33;;;5.73;;
36855;SDS011;22788;51.434;6.786;2024-01-30T03:12:43;9.33;;;5.13;;
36855;SDS011;22788;51.434;6.786;2024-01-30T03:15:09;6.63;;;4.97;;
36855;SDS011;22788;51.434;6.786;2024-01-30T03:17:34;5.60;;;4.87;;
36855;SDS011;22788;51.434;6.786;2024-01-30T03:20:00;5.20;;;4.70;;
36855;SDS011;22788;51.434;6.786;2024-01-30T03:22:25;6.63;;;5.37;;
36855;SDS011;22788;51.434;6.786;2024-01-30T03:24:51;7.30;;;4.63;;
36855;SDS011;22788;51.434;6.786;2024-01-30T03:27:16;6.03;;;4.97;;
36855;SDS011;22788;51.434;6.786;2024-01-30T03:29:43;7.70;;;5.80;;
36855;SDS011;22788;51.434;6.786;2024-01-30T03:32:09;8.07;;;5.37;;
36855;SDS011;22788;51.434;6.786;2024-01-30T03:34:34;7.57;;;5.00;;
36855;SDS011;22788;51.434;6.786;2024-01-30T03:37:00;7.43;;;4.93;;
36855;SDS011;22788;51.434;6.786;2024-01-30T03:39:26;5.50;;;4.90;;
36855;SDS011;22788;51.434;6.786;2024-01-30T03:41:51;6.73;;;5.07;;
36855;SDS011;22788;51.434;6.786;2024-01-30T03:44:17;6.83;;;5.00;;
36855;SDS011;22788;51.434;6.786;2024-01-30T03:46:44;7.10;;;5.00;;
36855;SDS011;22788;51.434;6.786;2024-01-30T03:49:09;7.17;;;5.57;;
36855;SDS011;22788;51.434;6.786;2024-01-30T03:51:35;6.33;;;4.83;;
36855;SDS011;22788;51.434;6.786;2024-01-30T03:54:00;6.43;;;5.30;;
36855;SDS011;22788;51.434;6.786;2024-01-30T03:56:26;6.07;;;4.70;;
36855;SDS011;22788;51.434;6.786;2024-01-30T03:58:52;8.00;;;6.00;;
36855;SDS011;22788;51.434;6.786;2024-01-30T04:01:17;7.43;;;5.17;;
36855;SDS011;22788;51.434;6.786;2024-01-30T04:03:44;5.90;;;4.83;;
36855;SDS011;22788;51.434;6.786;2024-01-30T04:06:10;10.07;;;5.00;;
36855;SDS011;22788;51.434;6.786;2024-01-30T04:08:36;7.10;;;4.87;;
36855;SDS011;22788;51.434;6.786;2024-01-30T04:11:03;5.30;;;4.80;;
36855;SDS011;22788;51.434;6.786;2024-01-30T04:13:29;7.07;;;5.27;;
36855;SDS011;22788;51.434;6.786;2024-01-30T04:15:54;6.43;;;5.43;;
36855;SDS011;22788;51.434;6.786;2024-01-30T04:18:20;8.70;;;5.97;;
36855;SDS011;22788;51.434;6.786;2024-01-30T04:20:47;6.83;;;4.80;;
36855;SDS011;22788;51.434;6.786;2024-01-30T04:23:12;8.27;;;6.00;;
36855;SDS011;22788;51.434;6.786;2024-01-30T04:25:38;7.57;;;5.10;;
36855;SDS011;22788;51.434;6.786;2024-01-30T04:28:04;7.30;;;5.50;;
36855;SDS011;22788;51.434;6.786;2024-01-30T04:30:29;9.27;;;6.17;;
36855;SDS011;22788;51.434;6.786;2024-01-30T04:32:55;7.00;;;5.63;;
36855;SDS011;22788;51.434;6.786;2024-01-30T04:35:21;9.83;;;5.30;;
36855;SDS011;22788;51.434;6.786;2024-01-30T04:37:48;11.30;;;5.30;;
36855;SDS011;22788;51.434;6.786;2024-01-30T04:40:13;6.67;;;5.13;;
36855;SDS011;22788;51.434;6.786;2024-01-30T04:42:39;7.33;;;5.37;;
36855;SDS011;22788;51.434;6.786;2024-01-30T04:45:05;8.33;;;5.13;;
36855;SDS011;22788;51.434;6.786;2024-01-30T04:47:31;7.23;;;4.70;;
36855;SDS011;22788;51.434;6.786;2024-01-30T04:49:56;6.07;;;4.43;;
36855;SDS011;22788;51.434;6.786;2024-01-30T04:52:22;8.03;;;5.03;;
36855;SDS011;22788;51.434;6.786;2024-01-30T04:54:49;6.53;;;5.03;;
36855;SDS011;22788;51.434;6.786;2024-01-30T04:57:15;6.67;;;4.53;;
36855;SDS011;22788;51.434;6.786;2024-01-30T04:59:40;8.87;;;5.07;;
36855;SDS011;22788;51.434;6.786;2024-01-30T05:02:06;7.47;;;5.47;;
36855;SDS011;22788;51.434;6.786;2024-01-30T05:04:31;5.20;;;4.40;;
36855;SDS011;22788;51.434;6.786;2024-01-30T05:06:57;7.20;;;4.90;;
36855;SDS011;22788;51.434;6.786;2024-01-30T05:09:23;7.90;;;5.57;;
36855;SDS011;22788;51.434;6.786;2024-01-30T05:11:49;7.77;;;5.00;;
36855;SDS011;22788;51.434;6.786;2024-01-30T05:14:15;7.50;;;5.40;;
36855;SDS011;22788;51.434;6.786;2024-01-30T05:16:41;7.50;;;5.73;;
36855;SDS011;22788;51.434;6.786;2024-01-30T05:19:06;5.77;;;4.67;;
36855;SDS011;22788;51.434;6.786;2024-01-30T05:21:32;6.83;;;4.70;;
36855;SDS011;22788;51.434;6.786;2024-01-30T05:23:57;6.00;;;5.40;;
36855;SDS011;22788;51.434;6.786;2024-01-30T05:26:23;6.40;;;4.83;;
36855;SDS011;22788;51.434;6.786;2024-01-30T05:28:50;7.07;;;5.67;;
36855;SDS011;22788;51.434;6.786;2024-01-30T05:31:15;7.40;;;5.37;;
36855;SDS011;22788;51.434;6.786;2024-01-30T05:33:41;7.53;;;4.73;;
36855;SDS011;22788;51.434;6.786;2024-01-30T05:36:07;7.77;;;4.97;;
36855;SDS011;22788;51.434;6.786;2024-01-30T05:38:32;6.73;;;4.70;;
36855;SDS011;22788;51.434;6.786;2024-01-30T05:40:58;5.27;;;4.77;;
36855;SDS011;22788;51.434;6.786;2024-01-30T05:43:24;7.20;;;4.77;;
36855;SDS011;22788;51.434;6.786;2024-01-30T05:45:51;6.60;;;4.63;;
36855;SDS011;22788;51.434;6.786;2024-01-30T05:48:17;7.33;;;4.70;;
36855;SDS011;22788;51.434;6.786;2024-01-30T05:50:42;6.57;;;4.40;;
36855;SDS011;22788;51.434;6.786;2024-01-30T05:53:08;5.60;;;4.87;;
36855;SDS011;22788;51.434;6.786;2024-01-30T05:55:34;6.03;;;4.50;;
36855;SDS011;22788;51.434;6.786;2024-01-30T05:57:59;7.87;;;5.17;;
36855;SDS011;22788;51.434;6.786;2024-01-30T06:00:25;7.67;;;5.13;;
36855;SDS011;22788;51.434;6.786;2024-01-30T06:02:52;7.83;;;5.83;;
36855;SDS011;22788;51.434;6.786;2024-01-30T06:05:17;6.90;;;4.63;;
36855;SDS011;22788;51.434;6.786;2024-01-30T06:07:43;5.17;;;4.47;;
36855;SDS011;22788;51.434;6.786;2024-01-30T06:10:09;5.80;;;4.80;;
36855;SDS011;22788;51.434;6.786;2024-01-30T06:12:34;8.23;;;4.73;;
36855;SDS011;22788;51.434;6.786;2024-01-30T06:15:00;7.67;;;5.40;;
36855;SDS011;22788;51.434;6.786;2024-01-30T06:17:25;5.90;;;5.00;;
36855;SDS011;22788;51.434;6.786;2024-01-30T06:19:52;6.73;;;4.90;;
36855;SDS011;22788;51.434;6.786;2024-01-30T06:22:18;7.00;;;5.07;;
36855;SDS011;22788;51.434;6.786;2024-01-30T06:24:43;8.83;;;5.40;;
36855;SDS011;22788;51.434;6.786;2024-01-30T06:27:09;6.37;;;4.60;;
36855;SDS011;22788;51.434;6.786;2024-01-30T06:29:35;9.57;;;5.70;;
36855;SDS011;22788;51.434;6.786;2024-01-30T06:32:00;4.97;;;4.17;;
36855;SDS011;22788;51.434;6.786;2024-01-30T06:34:26;6.73;;;4.87;;
36855;SDS011;22788;51.434;6.786;2024-01-30T06:36:53;6.47;;;4.63;;
36855;SDS011;22788;51.434;6.786;2024-01-30T06:39:19;6.83;;;4.83;;
36855;SDS011;22788;51.434;6.786;2024-01-30T06:41:44;7.13;;;5.20;;
36855;SDS011;22788;51.434;6.786;2024-01-30T06:44:10;9.13;;;5.47;;
36855;SDS011;22788;51.434;6.786;2024-01-30T06:46:35;7.87;;;5.30;;
36855;SDS011;22788;51.434;6.786;2024-01-30T06:49:01;5.80;;;5.20;;
36855;SDS011;22788;51.434;6.786;2024-01-30T06:51:26;5.23;;;4.70;;
36855;SDS011;22788;51.434;6.786;2024-01-30T06:53:53;7.30;;;5.10;;
36855;SDS011;22788;51.434;6.786;2024-01-30T06:56:19;6.20;;;4.80;;
36855;SDS011;22788;51.434;6.786;2024-01-30T06:58:44;7.97;;;5.40;;
36855;SDS011;22788;51.434;6.786;2024-01-30T07:01:10;6.87;;;5.23;;
36855;SDS011;22788;51.434;6.786;2024-01-30T07:03:36;5.80;;;4.53;;
36855;SDS011;22788;51.434;6.786;2024-01-30T07:06:02;7.67;;;5.97;;
36855;SDS011;22788;51.434;6.786;2024-01-30T07:08:27;7.43;;;5.77;;
36855;SDS011;22788;51.434;6.786;2024-01-30T07:10:54;8.33;;;5.00;;
36855;SDS011;22788;51.434;6.786;2024-01-30T07:13:20;7.10;;;4.93;;
36855;SDS011;22788;51.434;6.786;2024-01-30T07:15:45;7.57;;;5.07;;
36855;SDS011;22788;51.434;6.786;2024-01-30T07:18:11;5.63;;;4.80;;
36855;SDS011;22788;51.434;6.786;2024-01-30T07:20:36;8.97;;;5.33;;
36855;SDS011;22788;51.434;6.786;2024-01-30T07:23:02;6.23;;;4.60;;
36855;SDS011;22788;51.434;6.786;2024-01-30T07:25:28;6.53;;;5.07;;
36855;SDS011;22788;51.434;6.786;2024-01-30T07:27:55;8.97;;;5.30;;
36855;SDS011;22788;51.434;6.786;2024-01-30T07:30:21;9.80;;;5.40;;
36855;SDS011;22788;51.434;6.786;2024-01-30T07:32:46;9.83;;;5.50;;
36855;SDS011;22788;51.434;6.786;2024-01-30T07:35:12;6.30;;;5.07;;
36855;SDS011;22788;51.434;6.786;2024-01-30T07:37:38;5.93;;;4.53;;
36855;SDS011;22788;51.434;6.786;2024-01-30T07:40:04;7.13;;;5.27;;
36855;SDS011;22788;51.434;6.786;2024-01-30T07:42:31;6.43;;;5.40;;
36855;SDS011;22788;51.434;6.786;2024-01-30T07:44:58;5.80;;;4.63;;
36855;SDS011;22788;51.434;6.786;2024-01-30T07:47:24;7.83;;;4.73;;
36855;SDS011;22788;51.434;6.786;2024-01-30T07:49:49;7.27;;;4.60;;
36855;SDS011;22788;51.434;6.786;2024-01-30T07:52:15;9.63;;;5.30;;
36855;SDS011;22788;51.434;6.786;2024-01-30T07:54:40;9.60;;;4.97;;
36855;SDS011;22788;51.434;6.786;2024-01-30T07:57:06;5.07;;;4.17;;
36855;SDS011;22788;51.434;6.786;2024-01-30T07:59:32;5.57;;;4.80;;
36855;SDS011;22788;51.434;6.786;2024-01-30T08:01:58;6.90;;;5.30;;
36855;SDS011;22788;51.434;6.786;2024-01-30T08:04:24;6.80;;;5.00;;
36855;SDS011;22788;51.434;6.786;2024-01-30T08:06:50;6.10;;;3.93;;
36855;SDS011;22788;51.434;6.786;2024-01-30T08:09:15;7.23;;;5.10;;
36855;SDS011;22788;51.434;6.786;2024-01-30T08:11:41;8.30;;;5.37;;
36855;SDS011;22788;51.434;6.786;2024-01-30T08:14:06;5.83;;;4.70;;
36855;SDS011;22788;51.434;6.786;2024-01-30T08:16:32;8.50;;;4.30;;
36855;SDS011;22788;51.434;6.786;2024-01-30T08:18:59;8.43;;;5.57;;
36855;SDS011;22788;51.434;6.786;2024-01-30T08:21:24;6.77;;;5.20;;
36855;SDS011;22788;51.434;6.786;2024-01-30T08:23:50;7.80;;;5.87;;
36855;SDS011;22788;51.434;6.786;2024-01-30T08:26:15;6.90;;;4.43;;
36855;SDS011;22788;51.434;6.786;2024-01-30T08:28:41;5.53;;;4.60;;
36855;SDS011;22788;51.434;6.786;2024-01-30T08:31:07;6.53;;;4.57;;
36855;SDS011;22788;51.434;6.786;2024-01-30T08:33:35;5.77;;;4.53;;
36855;SDS011;22788;51.434;6.786;2024-01-30T08:36:02;7.80;;;4.57;;
36855;SDS011;22788;51.434;6.786;2024-01-30T08:38:27;6.77;;;4.93;;
36855;SDS011;22788;51.434;6.786;2024-01-30T08:40:54;8.20;;;5.13;;
36855;SDS011;22788;51.434;6.786;2024-01-30T08:43:20;6.70;;;4.87;;
36855;SDS011;22788;51.434;6.786;2024-01-30T08:45:45;5.10;;;4.27;;
36855;SDS011;22788;51.434;6.786;2024-01-30T08:48:11;6.10;;;5.10;;
36855;SDS011;22788;51.434;6.786;2024-01-30T08:50:37;6.63;;;4.33;;
36855;SDS011;22788;51.434;6.786;2024-01-30T08:53:04;5.33;;;4.60;;
36855;SDS011;22788;51.434;6.786;2024-01-30T08:55:29;5.40;;;4.70;;
36855;SDS011;22788;51.434;6.786;2024-01-30T08:57:56;7.70;;;4.93;;
36855;SDS011;22788;51.434;6.786;2024-01-30T09:00:21;4.93;;;4.43;;
36855;SDS011;22788;51.434;6.786;2024-01-30T09:02:47;5.87;;;4.70;;
36855;SDS011;22788;51.434;6.786;2024-01-30T09:05:12;7.87;;;5.30;;
36855;SDS011;22788;51.434;6.786;2024-01-30T09:07:38;8.10;;;5.40;;
36855;SDS011;22788;51.434;6.786;2024-01-30T09:10:06;7.60;;;4.90;;
36855;SDS011;22788;51.434;6.786;2024-01-30T09:12:32;6.70;;;4.70;;
36855;SDS011;22788;51.434;6.786;2024-01-30T09:14:57;10.73;;;5.50;;
36855;SDS011;22788;51.434;6.786;2024-01-30T09:17:23;7.10;;;5.30;;
36855;SDS011;22788;51.434;6.786;2024-01-30T09:19:48;8.07;;;4.90;;
36855;SDS011;22788;51.434;6.786;2024-01-30T09:22:14;6.67;;;5.33;;
36855;SDS011;22788;51.434;6.786;2024-01-30T09:24:40;6.10;;;5.03;;
36855;SDS011;22788;51.434;6.786;2024-01-30T09:27:07;6.73;;;4.70;;
36855;SDS011;22788;51.434;6.786;2024-01-30T09:29:32;8.37;;;5.00;;
36855;SDS011;22788;51.434;6.786;2024-01-30T09:31:58;5.60;;;5.10;;
36855;SDS011;22788;51.434;6.786;2024-01-30T09:34:23;7.23;;;5.07;;
36855;SDS011;22788;51.434;6.786;2024-01-30T09:36:49;8.00;;;4.93;;
36855;SDS011;22788;51.434;6.786;2024-01-30T09:39:15;6.10;;;5.50;;
36855;SDS011;22788;51.434;6.786;2024-01-30T09:41:45;6.07;;;4.50;;
36855;SDS011;22788;51.434;6.786;2024-01-30T09:44:14;7.87;;;4.83;;
36855;SDS011;22788;51.434;6.786;2024-01-30T09:46:41;8.13;;;5.30;;
36855;SDS011;22788;51.434;6.786;2024-01-30T09:49:08;7.97;;;5.70;;
36855;SDS011;22788;51.434;6.786;2024-01-30T09:51:34;7.47;;;4.50;;
36855;SDS011;22788;51.434;6.786;2024-01-30T09:54:01;8.97;;;5.53;;
36855;SDS011;22788;51.434;6.786;2024-01-30T09:56:27;6.30;;;4.50;;
36855;SDS011;22788;51.434;6.786;2024-01-30T09:58:53;6.40;;;4.73;;
36855;SDS011;22788;51.434;6.786;2024-01-30T10:01:20;7.00;;;4.93;;
36855;SDS011;22788;51.434;6.786;2024-01-30T10:03:46;9.93;;;7.20;;
36855;SDS011;22788;51.434;6.786;2024-01-30T10:06:12;5.43;;;4.57;;
36855;SDS011;22788;51.434;6.786;2024-01-30T10:08:39;7.53;;;5.30;;
36855;SDS011;22788;51.434;6.786;2024-01-30T10:11:04;10.40;;;5.17;;
36855;SDS011;22788;51.434;6.786;2024-01-30T10:13:30;9.17;;;6.10;;
36855;SDS011;22788;51.434;6.786;2024-01-30T10:15:55;6.00;;;4.93;;
36855;SDS011;22788;51.434;6.786;2024-01-30T10:18:23;7.40;;;5.50;;
36855;SDS011;22788;51.434;6.786;2024-01-30T10:20:49;10.27;;;6.63;;
36855;SDS011;22788;51.434;6.786;2024-01-30T10:23:14;5.87;;;4.70;;
36855;SDS011;22788;51.434;6.786;2024-01-30T10:25:40;9.13;;;5.77;;
36855;SDS011;22788;51.434;6.786;2024-01-30T10:28:06;12.90;;;6.03;;
36855;SDS011;22788;51.434;6.786;2024-01-30T10:30:31;9.93;;;6.33;;
36855;SDS011;22788;51.434;6.786;2024-01-30T10:32:57;8.63;;;5.80;;
36855;SDS011;22788;51.434;6.786;2024-01-30T10:35:24;8.10;;;6.00;;
36855;SDS011;22788;51.434;6.786;2024-01-30T10:37:49;12.10;;;5.50;;
36855;SDS011;22788;51.434;6.786;2024-01-30T10:40:15;6.57;;;5.20;;
36855;SDS011;22788;51.434;6.786;2024-01-30T10:42:42;10.30;;;6.73;;
36855;SDS011;22788;51.434;6.786;2024-01-30T10:45:09;8.20;;;5.60;;
36855;SDS011;22788;51.434;6.786;2024-01-30T10:47:36;9.40;;;6.30;;
36855;SDS011;22788;51.434;6.786;2024-01-30T10:50:02;13.07;;;7.17;;
36855;SDS011;22788;51.434;6.786;2024-01-30T10:52:29;8.53;;;5.67;;
36855;SDS011;22788;51.434;6.786;2024-01-30T10:54:56;11.57;;;7.13;;
36855;SDS011;22788;51.434;6.786;2024-01-30T10:57:22;12.53;;;7.00;;
36855;SDS011;22788;51.434;6.786;2024-01-30T10:59:48;7.07;;;5.53;;
36855;SDS011;22788;51.434;6.786;2024-01-30T11:02:16;7.30;;;5.80;;
36855;SDS011;22788;51.434;6.786;2024-01-30T11:04:42;10.07;;;5.60;;
36855;SDS011;22788;51.434;6.786;2024-01-30T11:07:14;7.80;;;5.57;;
36855;SDS011;22788;51.434;6.786;2024-01-30T11:09:47;9.97;;;6.50;;
36855;SDS011;22788;51.434;6.786;2024-01-30T11:12:13;10.23;;;6.60;;
36855;SDS011;22788;51.434;6.786;2024-01-30T11:14:39;8.83;;;5.90;;
36855;SDS011;22788;51.434;6.786;2024-01-30T11:17:04;11.13;;;5.93;;
36855;SDS011;22788;51.434;6.786;2024-01-30T11:19:30;7.90;;;6.03;;
36855;SDS011;22788;51.434;6.786;2024-01-30T11:21:57;13.67;;;7.93;;
36855;SDS011;22788;51.434;6.786;2024-01-30T11:24:22;9.50;;;6.70;;
36855;SDS011;22788;51.434;6.786;2024-01-30T11:26:54;12.27;;;6.70;;
36855;SDS011;22788;51.434;6.786;2024-01-30T11:29:23;7.87;;;5.57;;
36855;SDS011;22788;51.434;6.786;2024-01-30T11:31:53;12.43;;;7.03;;
36855;SDS011;22788;51.434;6.786;2024-01-30T11:34:18;10.43;;;5.90;;
36855;SDS011;22788;51.434;6.786;2024-01-30T11:36:45;11.00;;;6.77;;
36855;SDS011;22788;51.434;6.786;2024-01-30T11:39:16;9.33;;;7.10;;
36855;SDS011;22788;51.434;6.786;2024-01-30T11:41:45;11.20;;;6.23;;
36855;SDS011;22788;51.434;6.786;2024-01-30T11:44:12;10.10;;;6.40;;
36855;SDS011;22788;51.434;6.786;2024-01-30T11:46:40;9.13;;;5.73;;
36855;SDS011;22788;51.434;6.786;2024-01-30T11:49:05;7.97;;;5.87;;
36855;SDS011;22788;51.434;6.786;2024-01-30T11:51:31;11.90;;;5.93;;
36855;SDS011;22788;51.434;6.786;2024-01-30T11:53:57;11.80;;;6.77;;
36855;SDS011;22788;51.434;6.786;2024-01-30T11:56:23;14.07;;;6.70;;
36855;SDS011;22788;51.434;6.786;2024-01-30T11:58:49;9.03;;;6.10;;
36855;SDS011;22788;51.434;6.786;2024-01-30T12:01:17;9.33;;;5.87;;
36855;SDS011;22788;51.434;6.786;2024-01-30T12:03:48;10.67;;;5.83;;
36855;SDS011;22788;51.434;6.786;2024-01-30T12:06:15;10.17;;;6.53;;
36855;SDS011;22788;51.434;6.786;2024-01-30T12:08:40;10.27;;;6.13;;
36855;SDS011;22788;51.434;6.786;2024-01-30T12:11:06;8.07;;;5.37;;
36855;SDS011;22788;51.434;6.786;2024-01-30T12:13:32;9.77;;;6.73;;
36855;SDS011;22788;51.434;6.786;2024-01-30T12:15:57;11.60;;;7.23;;
36855;SDS011;22788;51.434;6.786;2024-01-30T12:18:25;11.00;;;6.90;;
36855;SDS011;22788;51.434;6.786;2024-01-30T12:20:56;12.53;;;6.43;;
36855;SDS011;22788;51.434;6.786;2024-01-30T12:23:22;10.37;;;6.40;;
36855;SDS011;22788;51.434;6.786;2024-01-30T12:25:48;10.00;;;6.63;;
36855;SDS011;22788;51.434;6.786;2024-01-30T12:28:15;8.60;;;6.40;;
36855;SDS011;22788;51.434;6.786;2024-01-30T12:30:40;8.80;;;6.63;;
36855;SDS011;22788;51.434;6.786;2024-01-30T12:33:06;10.50;;;6.60;;
36855;SDS011;22788;51.434;6.786;2024-01-30T12:35:33;10.90;;;5.80;;
36855;SDS011;22788;51.434;6.786;2024-01-30T12:37:59;7.13;;;6.23;;
36855;SDS011;22788;51.434;6.786;2024-01-30T12:40:25;15.47;;;6.67;;
36855;SDS011;22788;51.434;6.786;2024-01-30T12:42:51;12.80;;;7.20;;
36855;SDS011;22788;51.434;6.786;2024-01-30T12:45:17;10.47;;;5.80;;
36855;SDS011;22788;51.434;6.786;2024-01-30T12:47:43;13.87;;;6.93;;
36855;SDS011;22788;51.434;6.786;2024-01-30T12:50:09;11.10;;;6.03;;
36855;SDS011;22788;51.434;6.786;2024-01-30T12:52:36;12.70;;;7.13;;
36855;SDS011;22788;51.434;6.786;2024-01-30T12:55:02;10.37;;;5.60;;
36855;SDS011;22788;51.434;6.786;2024-01-30T12:57:28;13.27;;;7.33;;
36855;SDS011;22788;51.434;6.786;2024-01-30T12:59:53;14.43;;;7.53;;
36855;SDS011;22788;51.434;6.786;2024-01-30T13:02:19;7.70;;;5.80;;
36855;SDS011;22788;51.434;6.786;2024-01-30T13:04:44;10.57;;;6.27;;
36855;SDS011;22788;51.434;6.786;2024-01-30T13:07:10;14.00;;;8.53;;
36855;SDS011;22788;51.434;6.786;2024-01-30T13:09:37;12.80;;;7.17;;
36855;SDS011;22788;51.434;6.786;2024-01-30T13:12:03;7.97;;;5.87;;
36855;SDS011;22788;51.434;6.786;2024-01-30T13:14:29;16.03;;;6.80;;
36855;SDS011;22788;51.434;6.786;2024-01-30T13:16:54;13.03;;;6.77;;
36855;SDS011;22788;51.434;6.786;2024-01-30T13:19:20;10.30;;;6.10;;
36855;SDS011;22788;51.434;6.786;2024-01-30T13:21:46;14.37;;;6.37;;
36855;SDS011;22788;51.434;6.786;2024-01-30T13:24:11;9.87;;;6.50;;
36855;SDS011;22788;51.434;6.786;2024-01-30T13:26:38;11.13;;;5.73;;
36855;SDS011;22788;51.434;6.786;2024-01-30T13:29:04;11.13;;;6.43;;
36855;SDS011;22788;51.434;6.786;2024-01-30T13:31:29;9.93;;;6.77;;
36855;SDS011;22788;51.434;6.786;2024-01-30T13:33:55;9.63;;;6.10;;
36855;SDS011;22788;51.434;6.786;2024-01-30T13:36:21;12.17;;;6.00;;
36855;SDS011;22788;51.434;6.786;2024-01-30T13:38:47;15.03;;;6.90;;
36855;SDS011;22788;51.434;6.786;2024-01-30T13:41:13;8.87;;;5.47;;
36855;SDS011;22788;51.434;6.786;2024-01-30T13:43:40;9.70;;;6.10;;
36855;SDS011;22788;51.434;6.786;2024-01-30T13:46:05;9.53;;;5.70;;
36855;SDS011;22788;51.434;6.786;2024-01-30T13:48:31;10.47;;;6.27;;
36855;SDS011;22788;51.434;6.786;2024-01-30T13:50:57;10.97;;;5.93;;
36855;SDS011;22788;51.434;6.786;2024-01-30T13:53:22;10.07;;;6.10;;
36855;SDS011;22788;51.434;6.786;2024-01-30T13:55:48;8.80;;;4.83;;
36855;SDS011;22788;51.434;6.786;2024-01-30T13:58:13;10.30;;;5.60;;
36855;SDS011;22788;51.434;6.786;2024-01-30T14:00:40;11.07;;;6.47;;
36855;SDS011;22788;51.434;6.786;2024-01-30T14:03:06;11.70;;;5.90;;
36855;SDS011;22788;51.434;6.786;2024-01-30T14:05:32;8.97;;;5.47;;
36855;SDS011;22788;51.434;6.786;2024-01-30T14:07:57;8.60;;;5.40;;
36855;SDS011;22788;51.434;6.786;2024-01-30T14:10:24;10.40;;;5.87;;
36855;SDS011;22788;51.434;6.786;2024-01-30T14:12:50;7.83;;;5.33;;
36855;SDS011;22788;51.434;6.786;2024-01-30T14:15:16;10.30;;;6.07;;
36855;SDS011;22788;51.434;6.786;2024-01-30T14:17:43;10.67;;;6.63;;
36855;SDS011;22788;51.434;6.786;2024-01-30T14:20:09;14.70;;;6.33;;
36855;SDS011;22788;51.434;6.786;2024-01-30T14:22:35;11.00;;;5.73;;
36855;SDS011;22788;51.434;6.786;2024-01-30T14:25:01;11.20;;;6.30;;
36855;SDS011;22788;51.434;6.786;2024-01-30T14:27:26;9.27;;;6.77;;
36855;SDS011;22788;51.434;6.786;2024-01-30T14:29:52;12.07;;;7.10;;
36855;SDS011;22788;51.434;6.786;2024-01-30T14:32:17;8.83;;;5.90;;
36855;SDS011;22788;51.434;6.786;2024-01-30T14:34:44;9.17;;;6.67;;
36855;SDS011;22788;51.434;6.786;2024-01-30T14:37:10;8.63;;;6.80;;